createdAt,value
2023-04-13T00:02:43.177Z,87.18
2023-04-13T00:08:06.010Z,86.24
2023-04-13T00:13:27.754Z,86.43
2023-04-13T00:18:50.664Z,85.45
2023-04-13T00:24:12.610Z,84.98
2023-04-13T00:29:34.329Z,85.30
2023-04-13T00:34:56.191Z,84.65
2023-04-13T00:40:18.595Z,86.63
2023-04-13T00:45:41.430Z,84.51
2023-04-13T00:51:03.859Z,87.24
2023-04-13T00:56:27.272Z,85.69
2023-04-13T01:01:56.346Z,81.07
2023-04-13T01:07:27.395Z,84.10
2023-04-13T01:13:18.789Z,82.27
2023-04-13T01:18:41.794Z,82.09
2023-04-13T01:24:32.390Z,76.73
2023-04-13T01:29:56.993Z,77.26
2023-04-13T01:35:22.862Z,76.40
2023-04-13T01:40:44.832Z,76.59
2023-04-13T01:46:06.760Z,75.68
2023-04-13T01:51:34.664Z,76.92
2023-04-13T01:56:57.127Z,75.85
2023-04-13T02:02:19.023Z,78.83
2023-04-13T02:07:42.932Z,79.84
2023-04-13T02:13:04.696Z,78.46
2023-04-13T02:18:26.936Z,79.51
2023-04-13T02:23:48.740Z,83.25
2023-04-13T02:29:10.470Z,82.95
2023-04-13T02:34:33.967Z,80.01
2023-04-13T02:39:55.871Z,82.37
2023-04-13T02:45:18.297Z,82.14
2023-04-13T02:50:39.996Z,80.91
2023-04-13T02:56:02.205Z,80.06
2023-04-13T03:01:25.043Z,78.96
2023-04-13T03:06:47.082Z,79.65
2023-04-13T03:12:09.133Z,79.61
2023-04-13T03:17:31.077Z,78.69
2023-04-13T03:22:53.712Z,78.54
2023-04-13T03:28:15.760Z,79.30
2023-04-13T03:33:37.432Z,78.13
2023-04-13T03:38:59.480Z,78.20
2023-04-13T03:44:21.588Z,80.77
2023-04-13T03:49:43.308Z,79.05
2023-04-13T03:55:05.464Z,78.93
2023-04-13T04:00:27.583Z,78.77
2023-04-13T04:05:49.283Z,78.67
2023-04-13T04:11:11.006Z,78.66
2023-04-13T04:16:32.771Z,77.88
2023-04-13T04:21:57.796Z,78.45
2023-04-13T04:27:19.961Z,78.55
2023-04-13T04:32:41.736Z,77.63
2023-04-13T04:38:04.260Z,71.59
2023-04-13T04:43:27.262Z,72.26
2023-04-13T04:48:51.094Z,72.74
2023-04-13T04:54:12.893Z,71.23
2023-04-13T04:59:34.616Z,73.68
2023-04-13T05:04:57.389Z,75.76
2023-04-13T05:10:19.202Z,74.06
2023-04-13T05:15:40.933Z,74.11
2023-04-13T05:21:02.704Z,75.49
2023-04-13T05:26:25.523Z,74.28
2023-04-13T05:31:47.391Z,73.72
2023-04-13T05:37:10.518Z,70.98
2023-04-13T05:42:32.256Z,69.61
2023-04-13T05:47:54.043Z,69.09
2023-04-13T05:53:15.826Z,69.71
2023-04-13T05:58:39.011Z,67.55
2023-04-13T06:04:02.381Z,66.91
2023-04-13T06:09:24.292Z,67.23
2023-04-13T06:14:45.975Z,66.02
2023-04-13T06:20:08.845Z,65.83
2023-04-13T06:25:31.408Z,66.12
2023-04-13T06:30:53.202Z,66.42
2023-04-13T06:36:15.078Z,67.23
2023-04-13T06:41:43.149Z,66.41
